createdAt,value
2022-09-01T00:00:30.006Z,12.40
2022-09-01T00:02:59.913Z,12.70
2022-09-01T00:05:28.274Z,12.83
2022-09-01T00:07:57.662Z,12.10
2022-09-01T00:10:26.420Z,11.90
2022-09-01T00:12:54.529Z,12.73
2022-09-01T00:15:23.029Z,12.67
2022-09-01T00:17:51.124Z,12.93
2022-09-01T00:20:20.708Z,12.67
2022-09-01T00:22:49.640Z,12.47
2022-09-01T00:25:20.838Z,11.73
2022-09-01T00:27:49.640Z,12.63
2022-09-01T00:30:18.446Z,13.40
2022-09-01T00:32:46.985Z,14.63
2022-09-01T00:35:16.089Z,13.93
2022-09-01T00:37:44.245Z,13.90
2022-09-01T00:40:15.638Z,13.77
2022-09-01T00:42:46.216Z,15.30
2022-09-01T00:45:14.493Z,15.33
2022-09-01T00:47:43.842Z,14.50
2022-09-01T00:50:16.171Z,15.27
2022-09-01T00:52:49.187Z,13.90
2022-09-01T00:55:20.334Z,14.07
2022-09-01T00:57:50.290Z,15.03
2022-09-01T01:00:21.588Z,13.60
2022-09-01T01:02:56.217Z,13.20
2022-09-01T01:05:28.041Z,12.97
2022-09-01T01:07:57.018Z,12.60
2022-09-01T01:10:26.784Z,12.17
2022-09-01T01:12:56.292Z,12.37
2022-09-01T01:15:24.337Z,11.90
2022-09-01T01:17:52.428Z,11.53
2022-09-01T01:20:40.503Z,12.90
2022-09-01T01:23:19.598Z,11.73
2022-09-01T01:25:51.822Z,13.07
2022-09-01T01:28:22.445Z,12.93
2022-09-01T01:30:55.714Z,13.30
2022-09-01T01:33:26.717Z,13.10
2022-09-01T01:35:57.688Z,15.07
2022-09-01T01:38:28.270Z,13.13
2022-09-01T01:40:59.024Z,14.47
2022-09-01T01:43:29.031Z,14.43
2022-09-01T01:46:02.629Z,14.70
2022-09-01T01:48:37.274Z,14.70
2022-09-01T01:51:06.488Z,14.50
2022-09-01T01:53:35.929Z,15.53
2022-09-01T01:56:06.310Z,14.87
2022-09-01T01:58:37.043Z,15.93
2022-09-01T02:01:11.926Z,17.20
2022-09-01T02:03:40.794Z,16.37
2022-09-01T02:06:11.932Z,17.30
2022-09-01T02:08:42.095Z,17.87
2022-09-01T02:11:13.200Z,16.77
2022-09-01T02:13:41.476Z,17.60
2022-09-01T02:16:13.422Z,17.33
2022-09-01T02:18:48.128Z,17.47
2022-09-01T02:21:20.485Z,17.70
2022-09-01T02:23:50.275Z,17.13
2022-09-01T02:26:25.119Z,15.87
2022-09-01T02:28:55.937Z,17.60
2022-09-01T02:31:29.002Z,17.53
2022-09-01T02:34:01.230Z,16.93
2022-09-01T02:36:32.754Z,16.43
2022-09-01T02:39:01.267Z,17.20
2022-09-01T02:41:32.353Z,17.93
2022-09-01T02:44:02.550Z,18.30
2022-09-01T02:46:31.727Z,17.40
2022-09-01T02:49:01.624Z,18.17
2022-09-01T02:51:29.744Z,17.13
2022-09-01T02:53:58.600Z,17.90
2022-09-01T02:56:27.663Z,18.93
2022-09-01T02:58:57.893Z,17.63
2022-09-01T03:01:30.247Z,17.27
2022-09-01T03:04:01.956Z,17.97
2022-09-01T03:06:34.445Z,17.20
2022-09-01T03:09:03.759Z,17.60
2022-09-01T03:11:34.098Z,17.23
2022-09-01T03:14:03.685Z,18.60
2022-09-01T03:16:32.208Z,18.37
2022-09-01T03:19:03.360Z,16.47
2022-09-01T03:21:32.951Z,15.80
2022-09-01T03:24:02.254Z,17.93
2022-09-01T03:26:32.342Z,18.20
2022-09-01T03:29:00.435Z,17.93
2022-09-01T03:31:31.251Z,16.77
2022-09-01T03:34:03.407Z,17.83
2022-09-01T03:36:35.828Z,17.70
2022-09-01T03:39:04.266Z,16.80
2022-09-01T03:41:33.899Z,16.83
2022-09-01T03:44:02.066Z,16.70
2022-09-01T03:46:37.113Z,15.80
2022-09-01T03:49:08.129Z,16.87
2022-09-01T03:51:39.449Z,16.90
2022-09-01T03:54:09.350Z,16.87
2022-09-01T03:56:41.708Z,16.93
2022-09-01T03:59:17.075Z,17.67
2022-09-01T04:01:48.012Z,17.23
2022-09-01T04:04:17.088Z,16.53
2022-09-01T04:06:47.794Z,15.73
2022-09-01T04:09:16.304Z,16.07
2022-09-01T04:11:47.110Z,16.10
2022-09-01T04:14:17.082Z,16.50
2022-09-01T04:17:05.403Z,16.97
2022-09-01T04:19:38.582Z,15.60
2022-09-01T04:22:07.882Z,15.13
2022-09-01T04:24:46.675Z,15.23
2022-09-01T04:27:18.171Z,14.83
2022-09-01T04:29:48.548Z,15.63
2022-09-01T04:32:21.388Z,15.23
2022-09-01T04:34:53.266Z,15.60
2022-09-01T04:37:23.666Z,15.43
2022-09-01T04:39:57.513Z,16.13
2022-09-01T04:42:29.250Z,16.40
2022-09-01T04:45:03.120Z,16.33
2022-09-01T04:47:42.281Z,16.83
2022-09-01T04:50:17.596Z,16.53
2022-09-01T04:53:07.320Z,17.10
2022-09-01T04:55:50.235Z,16.00
2022-09-01T04:58:22.280Z,17.57
2022-09-01T05:00:53.117Z,17.60
2022-09-01T05:03:24.944Z,17.77
2022-09-01T05:06:01.259Z,16.93
2022-09-01T05:08:32.756Z,16.57
2022-09-01T05:11:07.587Z,17.40
2022-09-01T05:13:41.857Z,16.47
2022-09-01T05:16:13.217Z,18.13
2022-09-01T05:18:47.606Z,16.77
2022-09-01T05:21:20.019Z,16.47
2022-09-01T05:23:52.018Z,15.50
2022-09-01T05:26:23.954Z,15.40
2022-09-01T05:28:55.104Z,14.60
2022-09-01T05:31:24.998Z,15.20
2022-09-01T05:33:55.631Z,14.77
2022-09-01T05:36:25.180Z,14.77
2022-09-01T05:38:57.115Z,15.23
2022-09-01T05:41:26.377Z,16.37
2022-09-01T05:44:00.060Z,16.27
2022-09-01T05:46:30.163Z,14.87
2022-09-01T05:49:01.318Z,15.27
2022-09-01T05:51:44.501Z,16.10
2022-09-01T05:54:15.257Z,15.87
2022-09-01T05:56:44.864Z,15.23
2022-09-01T05:59:25.832Z,16.73
2022-09-01T06:02:00.553Z,16.37
2022-09-01T06:04:31.133Z,16.37
2022-09-01T06:07:10.234Z,18.43
2022-09-01T06:09:45.280Z,17.27
2022-09-01T06:12:18.959Z,16.70
2022-09-01T06:14:49.185Z,17.00
2022-09-01T06:17:19.634Z,17.53
2022-09-01T06:19:49.614Z,17.43
2022-09-01T06:22:17.755Z,17.50
2022-09-01T06:24:49.657Z,17.37
2022-09-01T06:27:22.698Z,18.20
2022-09-01T06:29:53.726Z,16.37
2022-09-01T06:32:25.888Z,15.83
2022-09-01T06:34:59.141Z,16.50
2022-09-01T06:37:28.874Z,15.93
2022-09-01T06:40:03.534Z,16.63
2022-09-01T06:42:35.320Z,15.77
2022-09-01T06:45:03.740Z,16.73
2022-09-01T06:47:32.838Z,15.30
2022-09-01T06:50:03.695Z,16.47
2022-09-01T06:53:31.950Z,16.10
2022-09-01T06:55:20.999Z,15.23
2022-09-01T06:58:09.519Z,14.83
2022-09-01T07:00:44.077Z,13.47
2022-09-01T07:03:15.215Z,13.80
2022-09-01T07:06:01.355Z,14.00
2022-09-01T07:16:30.244Z,13.20
2022-09-01T07:17:26.287Z,12.70
2022-09-01T07:19:56.075Z,12.93
2022-09-01T07:25:16.807Z,12.33
2022-09-01T07:28:09.032Z,13.00
2022-09-01T07:30:42.874Z,11.60
2022-09-01T07:45:25.577Z,8.20
2022-09-01T07:47:55.884Z,7.77
2022-09-01T07:50:40.188Z,7.27
2022-09-01T07:53:18.453Z,7.93
2022-09-01T07:55:51.207Z,7.80
2022-09-01T07:58:22.123Z,6.93
2022-09-01T08:00:56.218Z,7.30
2022-09-01T08:03:26.746Z,7.03
2022-09-01T08:06:00.764Z,7.43
2022-09-01T08:08:29.632Z,6.40
2022-09-01T08:11:07.864Z,6.93
2022-09-01T08:13:41.622Z,6.67
2022-09-01T08:16:18.983Z,7.60
2022-09-01T08:18:49.767Z,7.20
2022-09-01T08:21:41.556Z,6.83
2022-09-01T08:24:26.380Z,6.07
2022-09-01T08:26:56.018Z,6.90
2022-09-01T08:29:24.373Z,6.03
2022-09-01T08:31:54.437Z,6.20
2022-09-01T08:34:22.678Z,7.13
2022-09-01T08:36:51.168Z,7.07
2022-09-01T08:39:21.284Z,7.40
2022-09-01T08:41:59.097Z,7.73
2022-09-01T08:44:37.999Z,7.67
2022-09-01T08:47:13.744Z,8.13
2022-09-01T08:49:47.389Z,7.20
2022-09-01T08:52:30.504Z,8.00
2022-09-01T08:55:05.529Z,6.90
2022-09-01T08:57:36.060Z,7.40
2022-09-01T09:00:23.394Z,9.13
2022-09-01T09:03:08.789Z,7.10
2022-09-01T09:05:50.900Z,6.40
2022-09-01T09:08:44.960Z,6.77
2022-09-01T09:11:32.864Z,6.70
2022-09-01T09:14:07.038Z,6.27
2022-09-01T09:16:40.867Z,6.60
2022-09-01T09:19:12.349Z,7.03
2022-09-01T09:21:42.616Z,6.43
2022-09-01T09:24:19.321Z,7.47
2022-09-01T09:26:50.791Z,6.77
2022-09-01T09:29:20.617Z,7.30
2022-09-01T09:32:02.276Z,7.23
2022-09-01T09:34:33.617Z,7.07
2022-09-01T09:37:25.066Z,6.40
2022-09-01T09:40:15.112Z,5.37
2022-09-01T09:43:01.644Z,5.93
2022-09-01T09:45:33.962Z,4.50
2022-09-01T09:48:08.054Z,4.00
2022-09-01T09:50:43.251Z,4.07
2022-09-01T09:53:16.329Z,4.00
2022-09-01T09:55:58.314Z,4.10
2022-09-01T09:58:29.900Z,4.10
2022-09-01T10:01:03.997Z,4.67
2022-09-01T10:03:42.362Z,5.20
2022-09-01T10:06:13.406Z,4.20
2022-09-01T10:08:48.223Z,4.23
2022-09-01T10:11:33.508Z,4.57
2022-09-01T10:14:08.725Z,4.33
2022-09-01T10:16:43.108Z,3.23
2022-09-01T10:19:16.370Z,3.80
2022-09-01T10:21:46.953Z,4.07
2022-09-01T10:24:22.316Z,4.60
2022-09-01T10:26:58.613Z,3.80
2022-09-01T10:29:35.547Z,3.87
2022-09-01T10:32:35.045Z,4.10
2022-09-01T10:35:09.251Z,4.37
2022-09-01T10:37:38.649Z,4.23
2022-09-01T10:40:30.158Z,4.50
2022-09-01T10:43:05.597Z,3.20
2022-09-01T10:45:38.199Z,3.07
2022-09-01T10:48:33.672Z,3.70
2022-09-01T10:51:50.583Z,3.80
2022-09-01T10:55:01.363Z,3.87
2022-09-01T10:57:46.299Z,3.70
2022-09-01T11:03:51.954Z,3.60
2022-09-01T11:07:13.354Z,3.60
2022-09-01T11:09:43.631Z,3.20
2022-09-01T11:12:31.879Z,3.37
2022-09-01T11:15:03.105Z,3.47
2022-09-01T11:17:33.712Z,3.23
2022-09-01T11:20:08.783Z,3.10
2022-09-01T11:22:40.322Z,3.40
2022-09-01T11:25:41.290Z,3.43
2022-09-01T11:28:38.584Z,3.07
2022-09-01T11:31:26.377Z,3.13
2022-09-01T11:34:18.073Z,3.27
2022-09-01T11:37:13.395Z,3.00
2022-09-01T11:39:47.797Z,3.20
2022-09-01T11:42:20.414Z,3.57
2022-09-01T11:44:57.727Z,3.13
2022-09-01T11:47:29.374Z,2.73
2022-09-01T11:50:00.936Z,2.73
2022-09-01T11:52:32.485Z,2.60
2022-09-01T11:55:01.073Z,2.13
2022-09-01T11:57:32.155Z,2.77
2022-09-01T12:00:06.324Z,2.73
2022-09-01T12:02:45.757Z,2.47
2022-09-01T12:05:27.957Z,2.73
2022-09-01T12:07:57.037Z,2.73
2022-09-01T12:10:33.137Z,2.67
2022-09-01T12:13:02.599Z,2.90
2022-09-01T12:15:35.007Z,2.60
2022-09-01T12:18:20.980Z,2.33
2022-09-01T12:20:51.254Z,2.63
2022-09-01T12:23:26.666Z,2.80
2022-09-01T12:25:57.372Z,2.77
2022-09-01T12:28:30.419Z,2.80
2022-09-01T12:31:02.926Z,2.70
2022-09-01T12:33:36.732Z,2.50
2022-09-01T12:36:16.700Z,2.53
2022-09-01T12:38:44.824Z,2.80
2022-09-01T12:41:25.592Z,2.50
2022-09-01T12:43:54.686Z,2.73
2022-09-01T12:46:44.842Z,3.10
2022-09-01T12:49:20.726Z,2.83
2022-09-01T12:51:48.962Z,2.20
2022-09-01T12:54:17.230Z,2.80
2022-09-01T12:56:51.279Z,2.60
2022-09-01T12:59:31.987Z,2.70
2022-09-01T13:02:35.152Z,2.80
2022-09-01T13:05:30.671Z,2.87
2022-09-01T13:08:02.838Z,2.40
2022-09-01T13:10:34.421Z,2.67
2022-09-01T13:13:03.039Z,3.17
2022-09-01T13:15:32.219Z,3.10
2022-09-01T13:18:01.697Z,2.87
2022-09-01T13:20:30.108Z,2.90
2022-09-01T13:22:59.319Z,2.77
2022-09-01T13:25:27.532Z,3.23
2022-09-01T13:27:55.866Z,2.67
2022-09-01T13:30:28.427Z,2.97
2022-09-01T13:35:47.537Z,2.70
2022-09-01T13:38:16.920Z,2.70
2022-09-01T13:40:46.902Z,3.00
2022-09-01T13:43:15.680Z,3.07
2022-09-01T13:45:45.166Z,2.60
2022-09-01T13:48:15.906Z,3.33
2022-09-01T13:53:35.100Z,3.10
2022-09-01T13:56:03.514Z,2.73
2022-09-01T13:58:31.751Z,2.77
2022-09-01T14:01:00.233Z,2.60
2022-09-01T14:03:29.718Z,2.30
2022-09-01T14:05:57.826Z,2.50
2022-09-01T14:08:26.217Z,2.00
2022-09-01T14:10:55.774Z,1.90
2022-09-01T14:13:26.014Z,2.63
2022-09-01T14:15:55.337Z,3.07
2022-09-01T14:18:36.672Z,2.70
2022-09-01T14:21:04.999Z,2.67
2022-09-01T14:23:33.117Z,2.97
2022-09-01T14:26:02.749Z,3.47
2022-09-01T14:28:30.907Z,3.03
2022-09-01T14:33:27.397Z,3.83
2022-09-01T14:35:55.637Z,3.80
2022-09-01T14:38:23.790Z,3.50
2022-09-01T14:40:52.621Z,3.73
2022-09-01T14:43:23.027Z,3.60
2022-09-01T14:45:51.928Z,3.30
2022-09-01T14:48:21.584Z,3.20
2022-09-01T14:50:51.046Z,3.20
2022-09-01T14:53:19.610Z,3.50
2022-09-01T14:55:48.927Z,3.37
2022-09-01T14:58:18.629Z,3.30
2022-09-01T15:00:48.295Z,3.60
2022-09-01T15:03:19.337Z,2.80
2022-09-01T15:05:51.203Z,2.73
2022-09-01T15:08:19.699Z,3.20
2022-09-01T15:10:48.227Z,2.63
2022-09-01T15:13:16.353Z,2.80
2022-09-01T15:15:44.969Z,2.70
2022-09-01T15:18:14.438Z,2.70
2022-09-01T15:20:51.029Z,2.73
2022-09-01T15:23:21.417Z,2.60
2022-09-01T15:25:52.020Z,2.60
2022-09-01T15:28:20.712Z,2.60
2022-09-01T15:30:48.999Z,2.83
2022-09-01T15:33:19.169Z,2.57
2022-09-01T15:35:47.759Z,2.23
2022-09-01T15:38:17.840Z,2.50
2022-09-01T15:40:57.128Z,2.90
2022-09-01T15:43:27.170Z,2.63
2022-09-01T15:45:55.583Z,2.83
2022-09-01T15:48:25.831Z,2.40
2022-09-01T15:50:54.047Z,2.53
2022-09-01T15:53:22.307Z,2.43
2022-09-01T15:55:50.676Z,2.03
2022-09-01T15:58:20.226Z,2.60
2022-09-01T16:00:48.226Z,2.30
2022-09-01T16:03:16.906Z,2.60
2022-09-01T16:05:46.399Z,2.13
2022-09-01T16:08:14.583Z,2.83
2022-09-01T16:10:43.354Z,2.40
2022-09-01T16:13:13.184Z,2.57
2022-09-01T16:15:47.870Z,2.43
2022-09-01T16:18:32.485Z,3.00
2022-09-01T16:21:09.334Z,2.57
2022-09-01T16:23:44.142Z,2.87
2022-09-01T16:26:12.887Z,2.90
2022-09-01T16:28:46.090Z,3.10
2022-09-01T16:31:16.403Z,2.83
2022-09-01T16:33:49.268Z,2.80
2022-09-01T16:36:34.751Z,2.70
2022-09-01T16:39:10.548Z,2.80
2022-09-01T16:41:48.614Z,2.70
2022-09-01T16:44:27.558Z,2.70
2022-09-01T16:47:07.103Z,2.80
2022-09-01T16:49:43.862Z,2.53
2022-09-01T16:52:23.143Z,2.70
2022-09-01T16:55:05.367Z,2.50
2022-09-01T16:57:45.561Z,2.67
2022-09-01T17:00:16.768Z,3.00
2022-09-01T17:02:52.642Z,2.43
2022-09-01T17:05:27.284Z,2.60
2022-09-01T17:08:07.717Z,2.70
2022-09-01T17:10:43.924Z,3.20
2022-09-01T17:13:20.391Z,2.73
2022-09-01T17:15:56.324Z,2.73
2022-09-01T17:18:34.470Z,2.57
2022-09-01T17:21:10.694Z,2.63
2022-09-01T17:23:46.223Z,3.10
2022-09-01T17:26:19.830Z,3.10
2022-09-01T17:28:55.255Z,3.10
2022-09-01T17:31:41.769Z,2.97
2022-09-01T17:34:25.991Z,2.97
2022-09-01T17:37:04.926Z,2.77
2022-09-01T17:39:43.691Z,3.27
2022-09-01T17:42:25.057Z,3.20
2022-09-01T17:44:56.551Z,3.43
2022-09-01T17:47:35.907Z,3.70
2022-09-01T17:50:13.336Z,3.50
2022-09-01T17:52:53.187Z,3.27
2022-09-01T17:55:40.529Z,3.20
2022-09-01T17:58:17.140Z,3.53
2022-09-01T18:00:53.384Z,3.93
2022-09-01T18:03:45.758Z,3.60
2022-09-01T18:06:24.228Z,3.30
2022-09-01T18:08:55.155Z,3.60
2022-09-01T18:11:30.774Z,3.37
2022-09-01T18:14:03.365Z,3.70
2022-09-01T18:16:36.396Z,4.20
2022-09-01T18:19:08.513Z,4.23
2022-09-01T18:21:40.467Z,4.00
2022-09-01T18:24:16.107Z,3.40
2022-09-01T18:26:48.817Z,3.57
2022-09-01T18:29:17.777Z,3.43
2022-09-01T18:32:00.580Z,3.00
2022-09-01T18:34:39.693Z,3.30
2022-09-01T18:37:17.188Z,3.23
2022-09-01T18:39:56.245Z,3.37
2022-09-01T18:42:32.746Z,3.63
2022-09-01T18:45:10.967Z,3.17
2022-09-01T18:47:49.132Z,3.63
2022-09-01T18:50:24.520Z,3.40
2022-09-01T18:53:15.300Z,3.47
2022-09-01T18:55:51.909Z,3.27
2022-09-01T18:58:36.278Z,4.40
2022-09-01T19:01:07.138Z,3.57
2022-09-01T19:03:42.528Z,3.80
2022-09-01T19:06:27.742Z,3.80
2022-09-01T19:09:08.542Z,3.40
2022-09-01T19:11:49.109Z,3.80
2022-09-01T19:14:30.055Z,3.60
2022-09-01T19:17:42.701Z,2.90
2022-09-01T19:20:15.834Z,3.00
2022-09-01T19:22:49.055Z,3.43
2022-09-01T19:25:36.871Z,3.30
2022-09-01T19:28:14.932Z,3.00
2022-09-01T19:30:48.303Z,3.27
2022-09-01T19:33:22.482Z,3.73
2022-09-01T19:35:55.057Z,3.20
2022-09-01T19:38:27.800Z,3.60
2022-09-01T19:41:02.545Z,3.90
2022-09-01T19:43:37.378Z,3.63
2022-09-01T19:46:18.828Z,3.63
2022-09-01T19:48:52.859Z,3.80
2022-09-01T19:51:25.583Z,3.37
2022-09-01T19:54:02.361Z,3.20
2022-09-01T19:56:36.354Z,3.73
2022-09-01T19:59:14.825Z,4.43
2022-09-01T20:01:49.048Z,4.20
2022-09-01T20:04:27.181Z,3.77
2022-09-01T20:06:59.596Z,3.97
2022-09-01T20:09:36.951Z,4.27
2022-09-01T20:12:16.190Z,4.07
2022-09-01T20:14:54.658Z,3.83
2022-09-01T20:17:30.551Z,3.53
2022-09-01T20:20:05.019Z,4.40
2022-09-01T20:22:40.495Z,4.10
2022-09-01T20:25:12.930Z,4.20
2022-09-01T20:27:51.719Z,3.80
2022-09-01T20:30:22.273Z,4.27
2022-09-01T20:32:59.410Z,4.50
2022-09-01T20:35:37.584Z,4.63
2022-09-01T20:38:33.485Z,4.93
2022-09-01T20:41:04.928Z,4.77
2022-09-01T20:43:38.995Z,4.37
2022-09-01T20:46:07.306Z,4.47
2022-09-01T20:48:40.625Z,4.60
2022-09-01T20:51:13.986Z,4.50
2022-09-01T20:54:02.505Z,4.10
2022-09-01T20:56:40.588Z,4.57
2022-09-01T20:59:18.496Z,3.93
2022-09-01T21:01:53.439Z,4.43
2022-09-01T21:04:38.994Z,4.30
2022-09-01T21:07:14.956Z,4.50
2022-09-01T21:09:52.477Z,4.73
2022-09-01T21:12:28.811Z,4.47
2022-09-01T21:15:09.500Z,4.33
2022-09-01T21:17:43.535Z,3.90
2022-09-01T21:20:23.219Z,4.43
2022-09-01T21:22:51.793Z,4.33
2022-09-01T21:25:19.856Z,9.20
2022-09-01T21:27:52.070Z,8.90
2022-09-01T21:30:21.659Z,6.90
2022-09-01T21:32:52.709Z,5.50
2022-09-01T21:35:23.173Z,4.63
2022-09-01T21:37:51.708Z,5.17
2022-09-01T21:40:22.118Z,4.73
2022-09-01T21:42:54.527Z,5.13
2022-09-01T21:45:23.241Z,4.37
2022-09-01T21:47:53.244Z,4.50
2022-09-01T21:50:24.799Z,4.63
2022-09-01T21:52:52.879Z,4.90
2022-09-01T21:55:23.039Z,5.00
2022-09-01T21:57:51.785Z,4.60
2022-09-01T22:00:23.116Z,5.00
2022-09-01T22:02:51.598Z,5.03
2022-09-01T22:05:19.619Z,4.83
2022-09-01T22:07:49.004Z,5.03
2022-09-01T22:10:21.675Z,4.80
2022-09-01T22:12:50.985Z,4.53
2022-09-01T22:15:21.777Z,4.83
2022-09-01T22:17:50.477Z,5.10
2022-09-01T22:20:22.286Z,4.77
2022-09-01T22:23:01.875Z,4.73
2022-09-01T22:25:31.394Z,4.57
2022-09-01T22:28:00.207Z,4.73
2022-09-01T22:30:28.221Z,4.50
2022-09-01T22:32:56.271Z,5.00
2022-09-01T22:35:24.283Z,4.43
2022-09-01T22:37:53.788Z,4.63
2022-09-01T22:40:21.830Z,4.60
2022-09-01T22:42:51.222Z,4.70
2022-09-01T22:45:19.387Z,4.83
2022-09-01T22:47:47.299Z,4.30
2022-09-01T22:50:15.305Z,4.70
2022-09-01T22:52:43.743Z,4.50
2022-09-01T22:55:13.664Z,4.90
2022-09-01T22:57:41.625Z,4.40
2022-09-01T23:00:11.028Z,4.90
2022-09-01T23:02:40.182Z,4.47
2022-09-01T23:05:09.396Z,4.53
2022-09-01T23:07:39.812Z,4.50
2022-09-01T23:10:10.372Z,4.83
2022-09-01T23:12:39.828Z,4.40
2022-09-01T23:15:09.519Z,4.83
2022-09-01T23:17:37.919Z,4.43
2022-09-01T23:20:08.835Z,4.47
2022-09-01T23:22:36.906Z,5.00
2022-09-01T23:25:05.279Z,4.83
2022-09-01T23:27:33.335Z,4.53
2022-09-01T23:30:02.811Z,4.27
2022-09-01T23:32:30.879Z,4.30
2022-09-01T23:34:59.774Z,4.43
2022-09-01T23:37:28.252Z,4.13
2022-09-01T23:39:57.459Z,4.47
2022-09-01T23:42:25.624Z,4.10
2022-09-01T23:44:53.566Z,4.37
2022-09-01T23:47:22.883Z,4.37
2022-09-01T23:49:50.930Z,4.30
2022-09-01T23:52:18.920Z,4.00
2022-09-01T23:54:46.855Z,3.90
2022-09-01T23:57:14.818Z,4.33
2022-09-01T23:59:42.827Z,4.10
